Aviation Digital Data Service (ADDS)

Output produced by METARs form (2358 UTC 25 May 2017)
found at http://aviationweather.gov/adds/metars/
 
KYNG 252321Z 2523/2624 24004KT 6SM -RA BR SCT015 OVC035 
     FM260500 27006KT 5SM BR VCSH OVC015 
     FM260800 28006KT 5SM BR VCSH OVC006 
     FM261500 28010KT P6SM OVC015 
     FM262100 28009KT P6SM SCT025 BKN035